sensor_id;sensor_type;location;lat;lon;timestamp;temperature;humidity
49042;DHT22;34859;51.608;11.462;2023-04-22T00:01:31;6.50;99.90
49042;DHT22;34859;51.608;11.462;2023-04-22T00:03:59;6.30;99.90
49042;DHT22;34859;51.608;11.462;2023-04-22T00:06:25;6.30;99.90
49042;DHT22;34859;51.608;11.462;2023-04-22T00:08:50;6.30;99.90
49042;DHT22;34859;51.608;11.462;2023-04-22T00:11:16;6.40;99.90
49042;DHT22;34859;51.608;11.462;2023-04-22T00:13:42;6.30;99.90
49042;DHT22;34859;51.608;11.462;2023-04-22T00:16:09;6.10;99.90
49042;DHT22;34859;51.608;11.462;2023-04-22T00:18:37;6.00;99.90
49042;DHT22;34859;51.608;11.462;2023-04-22T00:21:02;6.00;99.90
49042;DHT22;34859;51.608;11.462;2023-04-22T00:23:28;6.00;99.90
49042;DHT22;34859;51.608;11.462;2023-04-22T00:25:54;6.00;99.90
49042;DHT22;34859;51.608;11.462;2023-04-22T00:28:19;5.90;99.90
49042;DHT22;34859;51.608;11.462;2023-04-22T00:30:45;5.90;99.90
49042;DHT22;34859;51.608;11.462;2023-04-22T00:33:10;5.90;99.90
49042;DHT22;34859;51.608;11.462;2023-04-22T00:35:39;5.90;99.90
49042;DHT22;34859;51.608;11.462;2023-04-22T00:38:04;6.00;99.90
49042;DHT22;34859;51.608;11.462;2023-04-22T00:40:30;5.90;99.90
49042;DHT22;34859;51.608;11.462;2023-04-22T00:42:56;5.80;99.90
49042;DHT22;34859;51.608;11.462;2023-04-22T00:45:23;5.80;99.90
49042;DHT22;34859;51.608;11.462;2023-04-22T00:47:51;5.80;99.90
49042;DHT22;34859;51.608;11.462;2023-04-22T00:50:17;5.80;99.90
49042;DHT22;34859;51.608;11.462;2023-04-22T00:52:43;5.80;99.90
49042;DHT22;34859;51.608;11.462;2023-04-22T00:55:09;5.90;99.90
49042;DHT22;34859;51.608;11.462;2023-04-22T00:57:39;5.70;99.90
49042;DHT22;34859;51.608;11.462;2023-04-22T01:00:05;5.50;99.90
49042;DHT22;34859;51.608;11.462;2023-04-22T01:02:31;5.40;99.90
49042;DHT22;34859;51.608;11.462;2023-04-22T01:04:57;5.30;99.90
49042;DHT22;34859;51.608;11.462;2023-04-22T01:07:24;5.40;99.90
49042;DHT22;34859;51.608;11.462;2023-04-22T01:09:49;5.40;99.90
49042;DHT22;34859;51.608;11.462;2023-04-22T01:12:17;5.50;99.90
49042;DHT22;34859;51.608;11.462;2023-04-22T01:14:42;5.50;99.90
49042;DHT22;34859;51.608;11.462;2023-04-22T01:17:08;5.50;99.90
49042;DHT22;34859;51.608;11.462;2023-04-22T01:19:35;5.60;99.90
49042;DHT22;34859;51.608;11.462;2023-04-22T01:22:00;5.50;99.90
49042;DHT22;34859;51.608;11.462;2023-04-22T01:24:28;5.60;99.90
49042;DHT22;34859;51.608;11.462;2023-04-22T01:26:54;5.60;99.90
49042;DHT22;34859;51.608;11.462;2023-04-22T01:29:20;5.70;99.90
49042;DHT22;34859;51.608;11.462;2023-04-22T01:31:46;5.80;99.90
49042;DHT22;34859;51.608;11.462;2023-04-22T01:34:12;5.70;99.90
49042;DHT22;34859;51.608;11.462;2023-04-22T01:36:38;5.60;99.90
49042;DHT22;34859;51.608;11.462;2023-04-22T01:39:03;5.40;99.90
49042;DHT22;34859;51.608;11.462;2023-04-22T01:41:29;5.30;99.90
49042;DHT22;34859;51.608;11.462;2023-04-22T01:43:57;5.20;99.90
49042;DHT22;34859;51.608;11.462;2023-04-22T01:46:24;5.30;99.90
49042;DHT22;34859;51.608;11.462;2023-04-22T01:48:50;5.30;99.90
49042;DHT22;34859;51.608;11.462;2023-04-22T01:51:19;5.40;99.90
49042;DHT22;34859;51.608;11.462;2023-04-22T01:53:47;5.50;99.90
49042;DHT22;34859;51.608;11.462;2023-04-22T01:56:12;5.60;99.90
49042;DHT22;34859;51.608;11.462;2023-04-22T01:58:38;5.60;99.90
49042;DHT22;34859;51.608;11.462;2023-04-22T02:01:05;5.60;99.90
49042;DHT22;34859;51.608;11.462;2023-04-22T02:03:31;5.60;99.90
49042;DHT22;34859;51.608;11.462;2023-04-22T02:05:58;5.60;99.90
49042;DHT22;34859;51.608;11.462;2023-04-22T02:08:23;5.40;99.90
49042;DHT22;34859;51.608;11.462;2023-04-22T02:10:49;5.20;99.90
49042;DHT22;34859;51.608;11.462;2023-04-22T02:13:15;5.30;99.90
49042;DHT22;34859;51.608;11.462;2023-04-22T02:15:40;5.20;99.90
49042;DHT22;34859;51.608;11.462;2023-04-22T02:18:10;5.10;99.90
49042;DHT22;34859;51.608;11.462;2023-04-22T02:20:37;5.10;99.90
49042;DHT22;34859;51.608;11.462;2023-04-22T02:23:02;5.00;99.90
49042;DHT22;34859;51.608;11.462;2023-04-22T02:25:29;5.00;99.90
49042;DHT22;34859;51.608;11.462;2023-04-22T02:27:55;4.80;99.90
49042;DHT22;34859;51.608;11.462;2023-04-22T02:30:20;4.80;99.90
49042;DHT22;34859;51.608;11.462;2023-04-22T02:32:46;4.80;99.90
49042;DHT22;34859;51.608;11.462;2023-04-22T02:35:12;4.80;99.90
49042;DHT22;34859;51.608;11.462;2023-04-22T02:37:38;4.80;99.90
49042;DHT22;34859;51.608;11.462;2023-04-22T02:40:04;4.90;99.90
49042;DHT22;34859;51.608;11.462;2023-04-22T02:42:30;5.00;99.90
49042;DHT22;34859;51.608;11.462;2023-04-22T02:45:00;5.00;99.90
49042;DHT22;34859;51.608;11.462;2023-04-22T02:47:27;4.80;99.90
49042;DHT22;34859;51.608;11.462;2023-04-22T02:49:53;4.60;99.90
49042;DHT22;34859;51.608;11.462;2023-04-22T02:52:19;4.50;99.90
49042;DHT22;34859;51.608;11.462;2023-04-22T02:54:45;4.50;99.90
49042;DHT22;34859;51.608;11.462;2023-04-22T02:57:10;4.70;99.90
49042;DHT22;34859;51.608;11.462;2023-04-22T02:59:37;4.80;99.90
49042;DHT22;34859;51.608;11.462;2023-04-22T03:02:02;4.60;99.90
49042;DHT22;34859;51.608;11.462;2023-04-22T03:04:28;4.60;99.90
49042;DHT22;34859;51.608;11.462;2023-04-22T03:06:53;4.50;99.90
49042;DHT22;34859;51.608;11.462;2023-04-22T03:09:20;4.50;99.90
49042;DHT22;34859;51.608;11.462;2023-04-22T03:11:46;4.40;99.90
49042;DHT22;34859;51.608;11.462;2023-04-22T03:14:32;4.30;99.90
49042;DHT22;34859;51.608;11.462;2023-04-22T03:16:58;4.30;99.90
49042;DHT22;34859;51.608;11.462;2023-04-22T03:19:23;4.50;99.90
49042;DHT22;34859;51.608;11.462;2023-04-22T03:21:49;4.60;99.90
49042;DHT22;34859;51.608;11.462;2023-04-22T03:24:15;4.60;99.90
49042;DHT22;34859;51.608;11.462;2023-04-22T03:26:40;4.60;99.90
49042;DHT22;34859;51.608;11.462;2023-04-22T03:29:07;4.60;99.90
49042;DHT22;34859;51.608;11.462;2023-04-22T03:31:32;4.60;99.90
49042;DHT22;34859;51.608;11.462;2023-04-22T03:33:58;4.60;99.90
49042;DHT22;34859;51.608;11.462;2023-04-22T03:36:23;4.60;99.90
49042;DHT22;34859;51.608;11.462;2023-04-22T03:38:49;4.60;99.90
49042;DHT22;34859;51.608;11.462;2023-04-22T03:41:16;4.50;99.90
49042;DHT22;34859;51.608;11.462;2023-04-22T03:43:42;4.50;99.90
49042;DHT22;34859;51.608;11.462;2023-04-22T03:46:08;4.50;99.90
49042;DHT22;34859;51.608;11.462;2023-04-22T03:48:33;4.50;99.90
49042;DHT22;34859;51.608;11.462;2023-04-22T03:51:00;4.30;99.90
49042;DHT22;34859;51.608;11.462;2023-04-22T03:53:27;4.40;99.90
49042;DHT22;34859;51.608;11.462;2023-04-22T03:55:53;4.30;99.90
49042;DHT22;34859;51.608;11.462;2023-04-22T03:58:19;4.30;99.90
49042;DHT22;34859;51.608;11.462;2023-04-22T04:00:44;4.20;99.90
49042;DHT22;34859;51.608;11.462;2023-04-22T04:03:10;4.10;99.90
49042;DHT22;34859;51.608;11.462;2023-04-22T04:05:36;4.00;99.90
49042;DHT22;34859;51.608;11.462;2023-04-22T04:08:02;4.00;99.90
49042;DHT22;34859;51.608;11.462;2023-04-22T04:10:28;4.10;99.90
49042;DHT22;34859;51.608;11.462;2023-04-22T04:13:13;4.40;99.90
49042;DHT22;34859;51.608;11.462;2023-04-22T04:15:59;4.40;99.90
49042;DHT22;34859;51.608;11.462;2023-04-22T04:18:48;4.50;99.90
49042;DHT22;34859;51.608;11.462;2023-04-22T04:21:34;4.60;99.90
49042;DHT22;34859;51.608;11.462;2023-04-22T04:24:19;4.60;99.90
49042;DHT22;34859;51.608;11.462;2023-04-22T04:26:45;4.50;99.90
49042;DHT22;34859;51.608;11.462;2023-04-22T04:29:11;4.50;99.90
49042;DHT22;34859;51.608;11.462;2023-04-22T04:31:37;4.50;99.90
49042;DHT22;34859;51.608;11.462;2023-04-22T04:34:03;4.50;99.90
49042;DHT22;34859;51.608;11.462;2023-04-22T04:36:32;4.60;99.90
49042;DHT22;34859;51.608;11.462;2023-04-22T04:38:58;4.60;99.90
49042;DHT22;34859;51.608;11.462;2023-04-22T04:41:23;4.50;99.90
49042;DHT22;34859;51.608;11.462;2023-04-22T04:43:51;4.60;99.90
49042;DHT22;34859;51.608;11.462;2023-04-22T04:46:17;4.60;99.90
49042;DHT22;34859;51.608;11.462;2023-04-22T04:48:44;4.50;99.90
49042;DHT22;34859;51.608;11.462;2023-04-22T04:51:10;4.50;99.90
49042;DHT22;34859;51.608;11.462;2023-04-22T04:53:36;4.60;99.90
49042;DHT22;34859;51.608;11.462;2023-04-22T04:56:02;4.60;99.90
49042;DHT22;34859;51.608;11.462;2023-04-22T04:58:31;4.70;99.90
49042;DHT22;34859;51.608;11.462;2023-04-22T05:00:57;4.70;99.90
49042;DHT22;34859;51.608;11.462;2023-04-22T05:03:42;4.80;99.90
49042;DHT22;34859;51.608;11.462;2023-04-22T05:06:08;4.90;99.90
49042;DHT22;34859;51.608;11.462;2023-04-22T05:08:34;5.00;99.90
49042;DHT22;34859;51.608;11.462;2023-04-22T05:11:00;5.10;99.90
49042;DHT22;34859;51.608;11.462;2023-04-22T05:13:28;5.20;99.90
49042;DHT22;34859;51.608;11.462;2023-04-22T05:15:54;5.30;99.90
49042;DHT22;34859;51.608;11.462;2023-04-22T05:18:20;5.30;99.90
49042;DHT22;34859;51.608;11.462;2023-04-22T05:20:46;5.40;99.90
49042;DHT22;34859;51.608;11.462;2023-04-22T05:23:12;5.60;99.90
49042;DHT22;34859;51.608;11.462;2023-04-22T05:25:41;5.70;99.90
49042;DHT22;34859;51.608;11.462;2023-04-22T05:28:07;5.80;99.90
49042;DHT22;34859;51.608;11.462;2023-04-22T05:30:32;5.90;99.90
49042;DHT22;34859;51.608;11.462;2023-04-22T05:32:58;6.10;99.90
49042;DHT22;34859;51.608;11.462;2023-04-22T05:35:24;6.10;99.90
49042;DHT22;34859;51.608;11.462;2023-04-22T05:37:49;6.20;99.90
49042;DHT22;34859;51.608;11.462;2023-04-22T05:40:15;6.30;99.90
49042;DHT22;34859;51.608;11.462;2023-04-22T05:42:40;6.50;99.90
49042;DHT22;34859;51.608;11.462;2023-04-22T05:45:07;6.60;99.90
49042;DHT22;34859;51.608;11.462;2023-04-22T05:47:32;6.70;99.90
49042;DHT22;34859;51.608;11.462;2023-04-22T05:49:58;6.90;99.90
49042;DHT22;34859;51.608;11.462;2023-04-22T05:52:24;7.00;99.90
49042;DHT22;34859;51.608;11.462;2023-04-22T05:54:49;7.20;99.90
49042;DHT22;34859;51.608;11.462;2023-04-22T05:57:15;7.40;99.90
49042;DHT22;34859;51.608;11.462;2023-04-22T05:59:41;7.50;99.90
49042;DHT22;34859;51.608;11.462;2023-04-22T06:02:07;7.50;99.90
49042;DHT22;34859;51.608;11.462;2023-04-22T06:04:32;7.60;99.90
49042;DHT22;34859;51.608;11.462;2023-04-22T06:06:58;7.80;99.90
49042;DHT22;34859;51.608;11.462;2023-04-22T06:09:24;8.00;99.90
49042;DHT22;34859;51.608;11.462;2023-04-22T06:11:50;8.10;99.90
49042;DHT22;34859;51.608;11.462;2023-04-22T06:14:21;8.30;99.90
49042;DHT22;34859;51.608;11.462;2023-04-22T06:16:47;8.60;99.90
49042;DHT22;34859;51.608;11.462;2023-04-22T06:19:14;8.90;99.90
49042;DHT22;34859;51.608;11.462;2023-04-22T06:21:40;9.00;99.90
49042;DHT22;34859;51.608;11.462;2023-04-22T06:24:07;9.10;99.90
49042;DHT22;34859;51.608;11.462;2023-04-22T06:26:35;9.30;99.90
49042;DHT22;34859;51.608;11.462;2023-04-22T06:29:00;9.30;99.90
49042;DHT22;34859;51.608;11.462;2023-04-22T06:31:27;9.60;99.90
49042;DHT22;34859;51.608;11.462;2023-04-22T06:33:53;9.80;99.90
49042;DHT22;34859;51.608;11.462;2023-04-22T06:36:18;10.00;99.90
49042;DHT22;34859;51.608;11.462;2023-04-22T06:38:48;10.20;99.90
49042;DHT22;34859;51.608;11.462;2023-04-22T06:41:34;10.30;99.90
49042;DHT22;34859;51.608;11.462;2023-04-22T06:43:59;10.40;99.90
49042;DHT22;34859;51.608;11.462;2023-04-22T06:46:28;10.60;99.90
49042;DHT22;34859;51.608;11.462;2023-04-22T06:48:54;10.80;99.90
49042;DHT22;34859;51.608;11.462;2023-04-22T06:51:20;10.90;99.90
49042;DHT22;34859;51.608;11.462;2023-04-22T06:53:46;11.20;99.90
49042;DHT22;34859;51.608;11.462;2023-04-22T06:56:12;11.40;99.90
49042;DHT22;34859;51.608;11.462;2023-04-22T06:58:38;11.50;99.90
49042;DHT22;34859;51.608;11.462;2023-04-22T07:01:03;11.60;99.90
49042;DHT22;34859;51.608;11.462;2023-04-22T07:03:29;11.80;99.90
49042;DHT22;34859;51.608;11.462;2023-04-22T07:05:54;11.90;99.90
49042;DHT22;34859;51.608;11.462;2023-04-22T07:08:20;12.10;99.90
49042;DHT22;34859;51.608;11.462;2023-04-22T07:10:46;12.20;99.90
49042;DHT22;34859;51.608;11.462;2023-04-22T07:13:12;12.30;99.90
49042;DHT22;34859;51.608;11.462;2023-04-22T07:15:38;12.40;99.90
49042;DHT22;34859;51.608;11.462;2023-04-22T07:18:03;12.50;99.90
49042;DHT22;34859;51.608;11.462;2023-04-22T07:20:29;12.60;99.90
49042;DHT22;34859;51.608;11.462;2023-04-22T07:22:54;12.70;99.90
49042;DHT22;34859;51.608;11.462;2023-04-22T07:25:20;12.90;99.90
49042;DHT22;34859;51.608;11.462;2023-04-22T07:27:47;13.00;99.90
49042;DHT22;34859;51.608;11.462;2023-04-22T07:30:13;13.10;99.90
49042;DHT22;34859;51.608;11.462;2023-04-22T07:32:38;13.30;99.90
49042;DHT22;34859;51.608;11.462;2023-04-22T07:35:04;13.30;99.90
49042;DHT22;34859;51.608;11.462;2023-04-22T07:37:30;13.50;99.90
49042;DHT22;34859;51.608;11.462;2023-04-22T07:39:56;13.70;99.90
49042;DHT22;34859;51.608;11.462;2023-04-22T07:42:23;13.80;99.90
49042;DHT22;34859;51.608;11.462;2023-04-22T07:44:48;13.80;99.90
49042;DHT22;34859;51.608;11.462;2023-04-22T07:47:14;13.90;99.90
49042;DHT22;34859;51.608;11.462;2023-04-22T07:49:39;14.00;99.90
49042;DHT22;34859;51.608;11.462;2023-04-22T07:52:06;14.00;99.90
49042;DHT22;34859;51.608;11.462;2023-04-22T07:54:34;14.10;99.90
49042;DHT22;34859;51.608;11.462;2023-04-22T07:56:59;14.20;99.90
49042;DHT22;34859;51.608;11.462;2023-04-22T07:59:29;14.30;99.90
49042;DHT22;34859;51.608;11.462;2023-04-22T08:01:54;14.30;99.90
49042;DHT22;34859;51.608;11.462;2023-04-22T08:04:23;14.40;99.90
49042;DHT22;34859;51.608;11.462;2023-04-22T08:06:48;14.50;99.90
49042;DHT22;34859;51.608;11.462;2023-04-22T08:09:14;14.50;99.90
49042;DHT22;34859;51.608;11.462;2023-04-22T08:11:40;14.50;99.90
49042;DHT22;34859;51.608;11.462;2023-04-22T08:14:10;14.60;99.90
49042;DHT22;34859;51.608;11.462;2023-04-22T08:16:38;14.70;99.90
49042;DHT22;34859;51.608;11.462;2023-04-22T08:19:23;14.70;99.90
49042;DHT22;34859;51.608;11.462;2023-04-22T08:21:49;14.80;99.90
49042;DHT22;34859;51.608;11.462;2023-04-22T08:24:18;14.90;99.90
49042;DHT22;34859;51.608;11.462;2023-04-22T08:26:43;15.00;99.90
49042;DHT22;34859;51.608;11.462;2023-04-22T08:29:09;15.20;99.90
49042;DHT22;34859;51.608;11.462;2023-04-22T08:31:35;15.30;99.90
49042;DHT22;34859;51.608;11.462;2023-04-22T08:34:00;15.40;99.90
49042;DHT22;34859;51.608;11.462;2023-04-22T08:36:28;15.60;99.90
49042;DHT22;34859;51.608;11.462;2023-04-22T08:38:54;15.60;99.90
49042;DHT22;34859;51.608;11.462;2023-04-22T08:41:20;15.60;99.90
49042;DHT22;34859;51.608;11.462;2023-04-22T08:43:46;15.50;99.90
49042;DHT22;34859;51.608;11.462;2023-04-22T08:46:13;15.40;99.90
49042;DHT22;34859;51.608;11.462;2023-04-22T08:48:40;15.40;99.90
49042;DHT22;34859;51.608;11.462;2023-04-22T08:51:07;15.30;99.90
49042;DHT22;34859;51.608;11.462;2023-04-22T08:53:32;15.30;99.90
49042;DHT22;34859;51.608;11.462;2023-04-22T08:55:58;15.40;99.90
49042;DHT22;34859;51.608;11.462;2023-04-22T08:58:24;15.50;99.90
49042;DHT22;34859;51.608;11.462;2023-04-22T09:00:54;15.70;99.90
49042;DHT22;34859;51.608;11.462;2023-04-22T09:03:20;15.80;99.90
49042;DHT22;34859;51.608;11.462;2023-04-22T09:05:47;15.90;99.90
49042;DHT22;34859;51.608;11.462;2023-04-22T09:08:15;16.00;99.90
49042;DHT22;34859;51.608;11.462;2023-04-22T09:10:40;16.00;99.90
49042;DHT22;34859;51.608;11.462;2023-04-22T09:13:06;16.30;99.90
49042;DHT22;34859;51.608;11.462;2023-04-22T09:15:32;16.40;99.90
49042;DHT22;34859;51.608;11.462;2023-04-22T09:17:59;16.50;99.90
49042;DHT22;34859;51.608;11.462;2023-04-22T09:20:28;16.70;99.90
49042;DHT22;34859;51.608;11.462;2023-04-22T09:22:54;16.80;99.90
49042;DHT22;34859;51.608;11.462;2023-04-22T09:27:58;16.90;99.90
49042;DHT22;34859;51.608;11.462;2023-04-22T09:30:33;17.10;99.90
49042;DHT22;34859;51.608;11.462;2023-04-22T09:33:01;17.20;99.90
49042;DHT22;34859;51.608;11.462;2023-04-22T09:35:28;17.30;99.90
49042;DHT22;34859;51.608;11.462;2023-04-22T09:37:59;17.40;99.90
49042;DHT22;34859;51.608;11.462;2023-04-22T09:40:25;17.60;99.90
49042;DHT22;34859;51.608;11.462;2023-04-22T09:42:52;17.70;99.90
49042;DHT22;34859;51.608;11.462;2023-04-22T09:45:24;17.80;99.90
49042;DHT22;34859;51.608;11.462;2023-04-22T09:47:50;17.90;99.90
49042;DHT22;34859;51.608;11.462;2023-04-22T09:50:18;18.00;99.90
49042;DHT22;34859;51.608;11.462;2023-04-22T09:52:44;17.90;99.90
49042;DHT22;34859;51.608;11.462;2023-04-22T09:55:31;18.00;99.90
49042;DHT22;34859;51.608;11.462;2023-04-22T09:58:02;18.00;99.90
49042;DHT22;34859;51.608;11.462;2023-04-22T10:00:29;18.00;99.90
49042;DHT22;34859;51.608;11.462;2023-04-22T10:02:57;18.20;99.90
49042;DHT22;34859;51.608;11.462;2023-04-22T10:05:22;18.20;99.90
49042;DHT22;34859;51.608;11.462;2023-04-22T10:07:50;18.30;99.90
49042;DHT22;34859;51.608;11.462;2023-04-22T10:10:17;18.20;99.90
49042;DHT22;34859;51.608;11.462;2023-04-22T10:12:42;18.30;99.90
49042;DHT22;34859;51.608;11.462;2023-04-22T10:15:08;18.50;99.90
49042;DHT22;34859;51.608;11.462;2023-04-22T10:17:35;18.70;99.90
49042;DHT22;34859;51.608;11.462;2023-04-22T10:20:02;18.70;99.90
49042;DHT22;34859;51.608;11.462;2023-04-22T10:22:32;18.80;99.90
49042;DHT22;34859;51.608;11.462;2023-04-22T10:24:58;18.90;99.90
49042;DHT22;34859;51.608;11.462;2023-04-22T10:27:24;19.10;99.90
49042;DHT22;34859;51.608;11.462;2023-04-22T10:29:50;19.20;99.90
49042;DHT22;34859;51.608;11.462;2023-04-22T10:34:43;19.20;99.90
49042;DHT22;34859;51.608;11.462;2023-04-22T10:37:09;19.20;99.90
49042;DHT22;34859;51.608;11.462;2023-04-22T10:39:37;19.30;99.90
49042;DHT22;34859;51.608;11.462;2023-04-22T10:44:45;19.50;99.90
49042;DHT22;34859;51.608;11.462;2023-04-22T10:47:11;19.60;99.90
49042;DHT22;34859;51.608;11.462;2023-04-22T10:49:37;19.70;99.90
49042;DHT22;34859;51.608;11.462;2023-04-22T10:52:05;19.80;99.90
49042;DHT22;34859;51.608;11.462;2023-04-22T10:57:01;19.70;99.90
49042;DHT22;34859;51.608;11.462;2023-04-22T10:59:28;19.60;99.90
49042;DHT22;34859;51.608;11.462;2023-04-22T11:01:54;19.70;99.90
49042;DHT22;34859;51.608;11.462;2023-04-22T11:04:23;19.80;99.90
49042;DHT22;34859;51.608;11.462;2023-04-22T11:09:51;19.90;99.90
49042;DHT22;34859;51.608;11.462;2023-04-22T11:15:04;20.20;99.90
49042;DHT22;34859;51.608;11.462;2023-04-22T11:17:30;20.40;99.90
49042;DHT22;34859;51.608;11.462;2023-04-22T11:19:57;20.50;99.90
49042;DHT22;34859;51.608;11.462;2023-04-22T11:22:23;20.60;99.90
49042;DHT22;34859;51.608;11.462;2023-04-22T11:24:56;20.60;99.90
49042;DHT22;34859;51.608;11.462;2023-04-22T11:27:23;20.60;99.90
49042;DHT22;34859;51.608;11.462;2023-04-22T11:30:05;20.60;99.90
49042;DHT22;34859;51.608;11.462;2023-04-22T11:32:32;20.50;99.90
49042;DHT22;34859;51.608;11.462;2023-04-22T11:34:58;20.30;99.90
49042;DHT22;34859;51.608;11.462;2023-04-22T11:37:28;20.20;99.90
49042;DHT22;34859;51.608;11.462;2023-04-22T11:39:58;20.20;99.90
49042;DHT22;34859;51.608;11.462;2023-04-22T11:42:23;20.40;99.90
49042;DHT22;34859;51.608;11.462;2023-04-22T11:44:49;20.50;99.90
49042;DHT22;34859;51.608;11.462;2023-04-22T11:47:15;20.70;99.90
49042;DHT22;34859;51.608;11.462;2023-04-22T11:49:41;20.80;99.90
49042;DHT22;34859;51.608;11.462;2023-04-22T11:52:21;20.80;99.90
49042;DHT22;34859;51.608;11.462;2023-04-22T11:54:48;20.90;99.90
49042;DHT22;34859;51.608;11.462;2023-04-22T11:57:14;20.90;99.90
49042;DHT22;34859;51.608;11.462;2023-04-22T11:59:42;21.00;99.90
49042;DHT22;34859;51.608;11.462;2023-04-22T12:02:08;20.90;99.90
49042;DHT22;34859;51.608;11.462;2023-04-22T12:04:35;20.80;99.90
49042;DHT22;34859;51.608;11.462;2023-04-22T12:07:00;20.80;99.90
49042;DHT22;34859;51.608;11.462;2023-04-22T12:09:27;20.60;99.90
49042;DHT22;34859;51.608;11.462;2023-04-22T12:11:53;20.60;99.90
49042;DHT22;34859;51.608;11.462;2023-04-22T12:14:19;20.80;99.90
49042;DHT22;34859;51.608;11.462;2023-04-22T12:16:45;20.90;99.90
49042;DHT22;34859;51.608;11.462;2023-04-22T12:19:25;20.80;99.90
49042;DHT22;34859;51.608;11.462;2023-04-22T12:21:55;20.90;99.90
49042;DHT22;34859;51.608;11.462;2023-04-22T12:24:26;21.10;99.90
49042;DHT22;34859;51.608;11.462;2023-04-22T12:26:51;21.20;99.90
49042;DHT22;34859;51.608;11.462;2023-04-22T12:29:25;21.20;99.90
49042;DHT22;34859;51.608;11.462;2023-04-22T12:31:50;21.20;99.90
49042;DHT22;34859;51.608;11.462;2023-04-22T12:34:19;21.20;99.90
49042;DHT22;34859;51.608;11.462;2023-04-22T12:36:46;21.20;99.90
49042;DHT22;34859;51.608;11.462;2023-04-22T12:39:12;21.20;99.90
49042;DHT22;34859;51.608;11.462;2023-04-22T12:41:39;21.30;99.90
49042;DHT22;34859;51.608;11.462;2023-04-22T12:44:05;21.20;99.90
49042;DHT22;34859;51.608;11.462;2023-04-22T12:46:31;21.10;98.80
49042;DHT22;34859;51.608;11.462;2023-04-22T12:48:57;21.10;99.90
49042;DHT22;34859;51.608;11.462;2023-04-22T12:51:22;21.10;99.30
49042;DHT22;34859;51.608;11.462;2023-04-22T12:53:48;21.10;99.90
49042;DHT22;34859;51.608;11.462;2023-04-22T12:56:13;21.20;99.90
49042;DHT22;34859;51.608;11.462;2023-04-22T12:58:39;21.20;98.70
49042;DHT22;34859;51.608;11.462;2023-04-22T13:01:05;21.10;99.00
49042;DHT22;34859;51.608;11.462;2023-04-22T13:03:30;21.10;97.80
49042;DHT22;34859;51.608;11.462;2023-04-22T13:06:01;20.90;97.80
49042;DHT22;34859;51.608;11.462;2023-04-22T13:08:46;21.00;97.40
49042;DHT22;34859;51.608;11.462;2023-04-22T13:11:25;21.20;96.90
49042;DHT22;34859;51.608;11.462;2023-04-22T13:14:11;21.40;98.60
49042;DHT22;34859;51.608;11.462;2023-04-22T13:16:56;21.50;95.70
49042;DHT22;34859;51.608;11.462;2023-04-22T13:19:22;21.40;97.80
49042;DHT22;34859;51.608;11.462;2023-04-22T13:21:50;21.50;98.10
49042;DHT22;34859;51.608;11.462;2023-04-22T13:24:15;21.60;97.30
49042;DHT22;34859;51.608;11.462;2023-04-22T13:26:41;21.60;96.10
49042;DHT22;34859;51.608;11.462;2023-04-22T13:29:07;21.40;96.10
49042;DHT22;34859;51.608;11.462;2023-04-22T13:31:36;21.30;95.60
49042;DHT22;34859;51.608;11.462;2023-04-22T13:34:02;21.20;95.40
49042;DHT22;34859;51.608;11.462;2023-04-22T13:36:28;21.40;95.90
49042;DHT22;34859;51.608;11.462;2023-04-22T13:38:54;21.60;96.10
49042;DHT22;34859;51.608;11.462;2023-04-22T13:41:19;21.60;94.80
49042;DHT22;34859;51.608;11.462;2023-04-22T13:43:47;21.70;93.90
49042;DHT22;34859;51.608;11.462;2023-04-22T13:46:17;21.60;95.20
49042;DHT22;34859;51.608;11.462;2023-04-22T13:48:42;21.50;95.30
49042;DHT22;34859;51.608;11.462;2023-04-22T13:51:08;21.50;95.50
49042;DHT22;34859;51.608;11.462;2023-04-22T13:53:34;21.40;95.90
49042;DHT22;34859;51.608;11.462;2023-04-22T13:56:00;21.50;95.60
49042;DHT22;34859;51.608;11.462;2023-04-22T13:58:27;21.50;95.10
49042;DHT22;34859;51.608;11.462;2023-04-22T14:00:53;21.70;96.10
49042;DHT22;34859;51.608;11.462;2023-04-22T14:03:19;21.80;95.90
49042;DHT22;34859;51.608;11.462;2023-04-22T14:05:44;21.70;94.30
49042;DHT22;34859;51.608;11.462;2023-04-22T14:08:10;21.80;94.90
49042;DHT22;34859;51.608;11.462;2023-04-22T14:10:38;21.70;94.10
49042;DHT22;34859;51.608;11.462;2023-04-22T14:13:04;21.80;94.60
49042;DHT22;34859;51.608;11.462;2023-04-22T14:15:29;21.60;94.10
49042;DHT22;34859;51.608;11.462;2023-04-22T14:17:55;21.50;94.00
49042;DHT22;34859;51.608;11.462;2023-04-22T14:20:21;21.40;93.40
49042;DHT22;34859;51.608;11.462;2023-04-22T14:22:49;21.30;95.30
49042;DHT22;34859;51.608;11.462;2023-04-22T14:25:15;21.30;95.00
49042;DHT22;34859;51.608;11.462;2023-04-22T14:27:41;21.10;95.30
49042;DHT22;34859;51.608;11.462;2023-04-22T14:30:07;21.20;94.70
49042;DHT22;34859;51.608;11.462;2023-04-22T14:32:33;21.00;94.90
49042;DHT22;34859;51.608;11.462;2023-04-22T14:34:59;21.00;94.90
49042;DHT22;34859;51.608;11.462;2023-04-22T14:37:24;20.90;94.70
49042;DHT22;34859;51.608;11.462;2023-04-22T14:39:50;20.80;95.30
49042;DHT22;34859;51.608;11.462;2023-04-22T14:42:16;20.90;95.50
49042;DHT22;34859;51.608;11.462;2023-04-22T14:44:43;20.80;95.10
49042;DHT22;34859;51.608;11.462;2023-04-22T14:47:09;20.70;95.70
49042;DHT22;34859;51.608;11.462;2023-04-22T14:49:35;20.70;95.90
49042;DHT22;34859;51.608;11.462;2023-04-22T14:52:21;20.60;96.60
49042;DHT22;34859;51.608;11.462;2023-04-22T14:54:47;20.60;96.30
49042;DHT22;34859;51.608;11.462;2023-04-22T14:57:13;20.50;96.40
49042;DHT22;34859;51.608;11.462;2023-04-22T14:59:39;20.50;96.20
49042;DHT22;34859;51.608;11.462;2023-04-22T15:02:05;20.50;96.60
49042;DHT22;34859;51.608;11.462;2023-04-22T15:04:31;20.50;96.10
49042;DHT22;34859;51.608;11.462;2023-04-22T15:06:59;20.50;96.80
49042;DHT22;34859;51.608;11.462;2023-04-22T15:09:27;20.50;96.50
49042;DHT22;34859;51.608;11.462;2023-04-22T15:11:53;20.50;96.30
49042;DHT22;34859;51.608;11.462;2023-04-22T15:14:20;20.50;96.10
49042;DHT22;34859;51.608;11.462;2023-04-22T15:16:47;20.50;97.40
49042;DHT22;34859;51.608;11.462;2023-04-22T15:19:14;20.50;96.70
49042;DHT22;34859;51.608;11.462;2023-04-22T15:21:40;20.60;97.00
49042;DHT22;34859;51.608;11.462;2023-04-22T15:24:06;20.60;96.80
49042;DHT22;34859;51.608;11.462;2023-04-22T15:26:32;20.70;96.40
49042;DHT22;34859;51.608;11.462;2023-04-22T15:28:58;20.80;96.40
49042;DHT22;34859;51.608;11.462;2023-04-22T15:31:24;20.90;96.30
49042;DHT22;34859;51.608;11.462;2023-04-22T15:33:50;21.10;96.90
49042;DHT22;34859;51.608;11.462;2023-04-22T15:36:20;21.20;97.80
49042;DHT22;34859;51.608;11.462;2023-04-22T15:38:46;21.40;96.60